This is the latest recevied weather packets stored in our database for station/object SQ5LTL-2. If no packets are shown the sender has not sent any weather packets the latest 10 day(s).
| Time | Temp. | Humidity | Pressure | Rain* | Wind** | Luminosity | Snow |
|---|---|---|---|---|---|---|---|
| 1777490419 | 0° C | 72% | 1030.1 hPa | 0 mm | - | 0 W/m² | - |
| 1777487727 | 2.78° C | 63% | 1029.8 hPa | 0 mm | - | 0 W/m² | - |
| 1777483827 | 5° C | 56% | 1029.3 hPa | 0 mm | - | 14 W/m² | - |
| 1777482621 | 6.11° C | 52% | 1029.1 hPa | 0 mm | - | 23 W/m² | - |
| 1777482321 | 6.11° C | 51% | 1029.1 hPa | 0 mm | - | 30 W/m² | - |
| 1777480530 | 6.11° C | 49% | 1028.9 hPa | 0 mm | - | 45 W/m² | - |
| 1777479326 | 6.67° C | 46% | 1028.8 hPa | 0 mm | - | 55 W/m² | - |
| 1777478722 | 6.67° C | 45% | 1028.8 hPa | 0 mm | - | 68 W/m² | - |
| 1777476030 | 7.22° C | 45% | 1028.6 hPa | 0 mm | - | 54 W/m² | - |
| 1777473034 | 7.22° C | 43% | 1028.5 hPa | 0 mm | - | 320 W/m² | - |
| 1777468231 | 6.67° C | 46% | 1028.3 hPa | 0 mm | - | 230 W/m² | - |
| 1777467327 | 6.67° C | 46% | 1028.4 hPa | 0 mm | - | 218 W/m² | - |
| 1777465216 | 6.11° C | 48% | 1028.5 hPa | 0 mm | - | 134 W/m² | - |
| 1777464935 | 6.67° C | 48% | 1028.5 hPa | 0 mm | - | 144 W/m² | - |
| 1777463729 | 6.67° C | 46% | 1028.4 hPa | 0 mm | - | 167 W/m² | - |
| 1777462524 | 7.22° C | 44% | 1028.3 hPa | 0 mm | - | 338 W/m² | - |
| 1777462221 | 7.22° C | 44% | 1028.3 hPa | 0 mm | - | 447 W/m² | - |
| 1777461619 | 6.67° C | 45% | 1028.3 hPa | 0 mm | - | 435 W/m² | - |
| 1777461318 | 7.22° C | 46% | 1028.2 hPa | 0 mm | - | 499 W/m² | - |
| 1777458925 | 6.11° C | 46% | 1028.3 hPa | 0 mm | - | 278 W/m² | - |
| 1777458624 | 6.11° C | 46% | 1028.2 hPa | 0 mm | - | 304 W/m² | - |
| 1777458022 | 7.22° C | 46% | 1028.2 hPa | 0 mm | - | 618 W/m² | - |
| 1777457720 | 6.11° C | 46% | 1028.2 hPa | 0 mm | - | 532 W/m² | - |
| 1777457418 | 6.67° C | 45% | 1028.1 hPa | 0 mm | - | 297 W/m² | - |
| 1777457116 | 6.11° C | 45% | 1028 hPa | 0 mm | - | 338 W/m² | - |
* Rain latest hour (hover to see other rain measurements)
** Current wind speed in m/s (hover to see current wind gust speed)